sensor_id;sensor_type;location;lat;lon;timestamp;P1;durP1;ratioP1;P2;durP2;ratioP2
16294;SDS011;8255;49.560;8.244;2023-02-14T00:02:09;18.30;;;12.47;;
16294;SDS011;8255;49.560;8.244;2023-02-14T00:04:37;17.37;;;12.10;;
16294;SDS011;8255;49.560;8.244;2023-02-14T00:07:07;18.80;;;12.20;;
16294;SDS011;8255;49.560;8.244;2023-02-14T00:09:34;17.93;;;12.27;;
16294;SDS011;8255;49.560;8.244;2023-02-14T00:12:00;15.70;;;11.57;;
16294;SDS011;8255;49.560;8.244;2023-02-14T00:14:27;17.80;;;12.50;;
16294;SDS011;8255;49.560;8.244;2023-02-14T00:17:11;16.67;;;12.80;;
16294;SDS011;8255;49.560;8.244;2023-02-14T00:19:38;18.10;;;12.23;;
16294;SDS011;8255;49.560;8.244;2023-02-14T00:22:05;18.77;;;12.83;;
16294;SDS011;8255;49.560;8.244;2023-02-14T00:24:31;20.33;;;12.17;;
16294;SDS011;8255;49.560;8.244;2023-02-14T00:26:57;21.23;;;13.30;;
16294;SDS011;8255;49.560;8.244;2023-02-14T00:29:25;19.53;;;12.40;;
16294;SDS011;8255;49.560;8.244;2023-02-14T00:31:52;21.67;;;12.97;;
16294;SDS011;8255;49.560;8.244;2023-02-14T00:34:18;20.33;;;12.90;;
16294;SDS011;8255;49.560;8.244;2023-02-14T00:36:46;17.40;;;12.17;;
16294;SDS011;8255;49.560;8.244;2023-02-14T00:39:14;15.70;;;12.10;;
16294;SDS011;8255;49.560;8.244;2023-02-14T00:41:41;18.60;;;12.90;;
16294;SDS011;8255;49.560;8.244;2023-02-14T00:44:08;18.67;;;12.37;;
16294;SDS011;8255;49.560;8.244;2023-02-14T00:46:34;21.77;;;12.57;;
16294;SDS011;8255;49.560;8.244;2023-02-14T00:49:00;16.57;;;13.13;;
16294;SDS011;8255;49.560;8.244;2023-02-14T00:51:27;18.77;;;13.17;;
16294;SDS011;8255;49.560;8.244;2023-02-14T00:53:55;20.57;;;14.03;;
16294;SDS011;8255;49.560;8.244;2023-02-14T00:56:21;20.10;;;13.23;;
16294;SDS011;8255;49.560;8.244;2023-02-14T00:58:47;18.37;;;13.37;;
16294;SDS011;8255;49.560;8.244;2023-02-14T01:01:16;20.30;;;12.90;;
16294;SDS011;8255;49.560;8.244;2023-02-14T01:03:42;20.10;;;12.97;;
16294;SDS011;8255;49.560;8.244;2023-02-14T01:06:09;18.73;;;12.73;;
16294;SDS011;8255;49.560;8.244;2023-02-14T01:08:35;21.00;;;13.30;;
16294;SDS011;8255;49.560;8.244;2023-02-14T01:11:07;18.30;;;13.07;;
16294;SDS011;8255;49.560;8.244;2023-02-14T01:13:33;19.57;;;12.77;;
16294;SDS011;8255;49.560;8.244;2023-02-14T01:16:04;18.60;;;12.60;;
16294;SDS011;8255;49.560;8.244;2023-02-14T01:18:30;21.80;;;14.10;;
16294;SDS011;8255;49.560;8.244;2023-02-14T01:21:07;18.63;;;12.20;;
16294;SDS011;8255;49.560;8.244;2023-02-14T01:23:33;19.23;;;14.50;;
16294;SDS011;8255;49.560;8.244;2023-02-14T01:26:02;24.87;;;16.57;;
16294;SDS011;8255;49.560;8.244;2023-02-14T01:28:30;23.30;;;13.83;;
16294;SDS011;8255;49.560;8.244;2023-02-14T01:30:56;21.80;;;13.63;;
16294;SDS011;8255;49.560;8.244;2023-02-14T01:33:22;22.30;;;14.07;;
16294;SDS011;8255;49.560;8.244;2023-02-14T01:35:49;20.33;;;13.37;;
16294;SDS011;8255;49.560;8.244;2023-02-14T01:38:15;19.80;;;13.20;;
16294;SDS011;8255;49.560;8.244;2023-02-14T01:40:41;21.07;;;13.30;;
16294;SDS011;8255;49.560;8.244;2023-02-14T01:43:10;21.00;;;13.53;;
16294;SDS011;8255;49.560;8.244;2023-02-14T01:45:39;21.20;;;14.13;;
16294;SDS011;8255;49.560;8.244;2023-02-14T01:48:05;21.17;;;13.20;;
16294;SDS011;8255;49.560;8.244;2023-02-14T01:50:33;22.57;;;13.93;;
16294;SDS011;8255;49.560;8.244;2023-02-14T01:53:03;19.47;;;13.17;;
16294;SDS011;8255;49.560;8.244;2023-02-14T01:55:35;19.00;;;13.80;;
16294;SDS011;8255;49.560;8.244;2023-02-14T01:58:03;20.57;;;13.73;;
16294;SDS011;8255;49.560;8.244;2023-02-14T02:00:31;21.27;;;14.50;;
16294;SDS011;8255;49.560;8.244;2023-02-14T02:03:16;21.93;;;13.43;;
16294;SDS011;8255;49.560;8.244;2023-02-14T02:05:45;22.80;;;13.70;;
16294;SDS011;8255;49.560;8.244;2023-02-14T02:08:12;23.97;;;14.80;;
16294;SDS011;8255;49.560;8.244;2023-02-14T02:10:39;23.87;;;14.80;;
16294;SDS011;8255;49.560;8.244;2023-02-14T02:13:06;22.53;;;15.37;;
16294;SDS011;8255;49.560;8.244;2023-02-14T02:15:36;23.73;;;15.30;;
16294;SDS011;8255;49.560;8.244;2023-02-14T02:18:07;23.10;;;15.20;;
16294;SDS011;8255;49.560;8.244;2023-02-14T02:20:44;25.87;;;16.13;;
16294;SDS011;8255;49.560;8.244;2023-02-14T02:23:28;23.87;;;15.37;;
16294;SDS011;8255;49.560;8.244;2023-02-14T02:28:57;24.20;;;14.83;;
16294;SDS011;8255;49.560;8.244;2023-02-14T02:31:32;25.13;;;15.30;;
16294;SDS011;8255;49.560;8.244;2023-02-14T02:34:11;26.40;;;16.10;;
16294;SDS011;8255;49.560;8.244;2023-02-14T02:36:59;23.13;;;15.40;;
16294;SDS011;8255;49.560;8.244;2023-02-14T02:39:31;25.97;;;15.27;;
16294;SDS011;8255;49.560;8.244;2023-02-14T02:42:02;26.27;;;17.00;;
16294;SDS011;8255;49.560;8.244;2023-02-14T02:44:32;23.83;;;15.70;;
16294;SDS011;8255;49.560;8.244;2023-02-14T02:47:01;26.67;;;16.20;;
16294;SDS011;8255;49.560;8.244;2023-02-14T02:49:31;24.17;;;15.80;;
16294;SDS011;8255;49.560;8.244;2023-02-14T02:52:19;24.00;;;15.73;;
16294;SDS011;8255;49.560;8.244;2023-02-14T02:55:05;23.40;;;14.77;;
16294;SDS011;8255;49.560;8.244;2023-02-14T02:57:33;24.30;;;14.87;;
16294;SDS011;8255;49.560;8.244;2023-02-14T03:00:01;25.83;;;15.93;;
16294;SDS011;8255;49.560;8.244;2023-02-14T03:02:29;24.60;;;15.63;;
16294;SDS011;8255;49.560;8.244;2023-02-14T03:04:59;26.13;;;15.90;;
16294;SDS011;8255;49.560;8.244;2023-02-14T03:07:32;25.57;;;15.67;;
16294;SDS011;8255;49.560;8.244;2023-02-14T03:10:06;25.53;;;15.97;;
16294;SDS011;8255;49.560;8.244;2023-02-14T03:15:30;23.60;;;15.67;;
16294;SDS011;8255;49.560;8.244;2023-02-14T03:18:01;27.37;;;16.43;;
16294;SDS011;8255;49.560;8.244;2023-02-14T03:20:33;27.67;;;16.87;;
16294;SDS011;8255;49.560;8.244;2023-02-14T03:23:05;26.97;;;15.87;;
16294;SDS011;8255;49.560;8.244;2023-02-14T03:25:36;24.30;;;15.70;;
16294;SDS011;8255;49.560;8.244;2023-02-14T03:28:08;24.80;;;16.17;;
16294;SDS011;8255;49.560;8.244;2023-02-14T03:30:38;30.13;;;16.57;;
16294;SDS011;8255;49.560;8.244;2023-02-14T03:33:11;25.67;;;16.30;;
16294;SDS011;8255;49.560;8.244;2023-02-14T03:35:41;26.50;;;16.57;;
16294;SDS011;8255;49.560;8.244;2023-02-14T03:38:13;26.60;;;17.03;;
16294;SDS011;8255;49.560;8.244;2023-02-14T03:40:41;27.53;;;16.87;;
16294;SDS011;8255;49.560;8.244;2023-02-14T03:43:13;24.47;;;16.67;;
16294;SDS011;8255;49.560;8.244;2023-02-14T03:45:41;27.57;;;17.90;;
16294;SDS011;8255;49.560;8.244;2023-02-14T03:48:10;30.53;;;17.53;;
16294;SDS011;8255;49.560;8.244;2023-02-14T03:50:37;26.60;;;16.67;;
16294;SDS011;8255;49.560;8.244;2023-02-14T03:53:04;29.63;;;17.67;;
16294;SDS011;8255;49.560;8.244;2023-02-14T03:55:35;24.90;;;15.87;;
16294;SDS011;8255;49.560;8.244;2023-02-14T03:58:04;24.53;;;16.13;;
16294;SDS011;8255;49.560;8.244;2023-02-14T04:00:34;27.40;;;16.57;;
16294;SDS011;8255;49.560;8.244;2023-02-14T04:03:02;27.13;;;16.97;;
16294;SDS011;8255;49.560;8.244;2023-02-14T04:05:30;26.70;;;16.40;;
16294;SDS011;8255;49.560;8.244;2023-02-14T04:07:57;27.50;;;16.70;;
16294;SDS011;8255;49.560;8.244;2023-02-14T04:10:24;27.70;;;15.73;;
16294;SDS011;8255;49.560;8.244;2023-02-14T04:12:52;25.30;;;16.17;;
16294;SDS011;8255;49.560;8.244;2023-02-14T04:15:19;25.80;;;16.43;;
16294;SDS011;8255;49.560;8.244;2023-02-14T04:17:45;26.73;;;16.47;;
16294;SDS011;8255;49.560;8.244;2023-02-14T04:20:29;28.03;;;15.50;;
16294;SDS011;8255;49.560;8.244;2023-02-14T04:22:55;24.67;;;15.33;;
16294;SDS011;8255;49.560;8.244;2023-02-14T04:25:22;28.90;;;16.80;;
16294;SDS011;8255;49.560;8.244;2023-02-14T04:27:48;28.93;;;17.40;;
16294;SDS011;8255;49.560;8.244;2023-02-14T04:30:16;30.67;;;18.47;;
16294;SDS011;8255;49.560;8.244;2023-02-14T04:32:45;29.47;;;17.57;;
16294;SDS011;8255;49.560;8.244;2023-02-14T04:35:11;30.33;;;17.93;;
16294;SDS011;8255;49.560;8.244;2023-02-14T04:37:37;30.37;;;17.17;;
16294;SDS011;8255;49.560;8.244;2023-02-14T04:40:04;30.50;;;16.77;;
16294;SDS011;8255;49.560;8.244;2023-02-14T04:42:31;34.47;;;18.10;;
16294;SDS011;8255;49.560;8.244;2023-02-14T04:44:57;34.83;;;17.23;;
16294;SDS011;8255;49.560;8.244;2023-02-14T04:47:25;49.17;;;17.07;;
16294;SDS011;8255;49.560;8.244;2023-02-14T04:49:51;61.13;;;17.07;;
16294;SDS011;8255;49.560;8.244;2023-02-14T04:52:18;53.43;;;16.10;;
16294;SDS011;8255;49.560;8.244;2023-02-14T04:54:44;62.17;;;17.23;;
16294;SDS011;8255;49.560;8.244;2023-02-14T04:57:12;49.37;;;17.03;;
16294;SDS011;8255;49.560;8.244;2023-02-14T04:59:39;64.87;;;17.87;;
16294;SDS011;8255;49.560;8.244;2023-02-14T05:02:05;97.33;;;17.73;;
16294;SDS011;8255;49.560;8.244;2023-02-14T05:04:32;58.47;;;18.37;;
16294;SDS011;8255;49.560;8.244;2023-02-14T05:06:59;46.67;;;18.10;;
16294;SDS011;8255;49.560;8.244;2023-02-14T05:09:25;33.50;;;15.43;;
16294;SDS011;8255;49.560;8.244;2023-02-14T05:11:52;44.40;;;18.77;;
16294;SDS011;8255;49.560;8.244;2023-02-14T05:14:18;33.70;;;17.43;;
16294;SDS011;8255;49.560;8.244;2023-02-14T05:16:44;43.97;;;19.00;;
16294;SDS011;8255;49.560;8.244;2023-02-14T05:19:11;48.77;;;20.70;;
16294;SDS011;8255;49.560;8.244;2023-02-14T05:21:39;41.17;;;20.37;;
16294;SDS011;8255;49.560;8.244;2023-02-14T05:24:05;38.73;;;20.43;;
16294;SDS011;8255;49.560;8.244;2023-02-14T05:26:31;44.30;;;21.57;;
16294;SDS011;8255;49.560;8.244;2023-02-14T05:28:58;50.13;;;21.00;;
16294;SDS011;8255;49.560;8.244;2023-02-14T05:31:24;39.77;;;20.43;;
16294;SDS011;8255;49.560;8.244;2023-02-14T05:33:50;52.07;;;20.47;;
16294;SDS011;8255;49.560;8.244;2023-02-14T05:36:17;41.87;;;19.73;;
16294;SDS011;8255;49.560;8.244;2023-02-14T05:38:44;42.00;;;19.20;;
16294;SDS011;8255;49.560;8.244;2023-02-14T05:41:11;41.20;;;19.40;;
16294;SDS011;8255;49.560;8.244;2023-02-14T05:43:37;38.77;;;18.60;;
16294;SDS011;8255;49.560;8.244;2023-02-14T05:46:04;45.63;;;18.97;;
16294;SDS011;8255;49.560;8.244;2023-02-14T05:48:31;56.27;;;19.60;;
16294;SDS011;8255;49.560;8.244;2023-02-14T05:51:01;46.67;;;19.73;;
16294;SDS011;8255;49.560;8.244;2023-02-14T05:53:27;42.60;;;19.00;;
16294;SDS011;8255;49.560;8.244;2023-02-14T05:55:55;68.80;;;20.07;;
16294;SDS011;8255;49.560;8.244;2023-02-14T05:58:21;60.83;;;19.30;;
16294;SDS011;8255;49.560;8.244;2023-02-14T06:00:48;49.33;;;16.60;;
16294;SDS011;8255;49.560;8.244;2023-02-14T06:03:14;64.72;;;22.52;;
16294;SDS011;8255;49.560;8.244;2023-02-14T06:05:40;62.57;;;21.07;;
16294;SDS011;8255;49.560;8.244;2023-02-14T06:08:06;59.00;;;20.13;;
16294;SDS011;8255;49.560;8.244;2023-02-14T06:10:33;54.50;;;20.50;;
16294;SDS011;8255;49.560;8.244;2023-02-14T06:13:00;48.93;;;19.60;;
16294;SDS011;8255;49.560;8.244;2023-02-14T06:15:27;50.43;;;18.10;;
16294;SDS011;8255;49.560;8.244;2023-02-14T06:17:54;67.97;;;19.40;;
16294;SDS011;8255;49.560;8.244;2023-02-14T06:20:21;72.30;;;20.63;;
16294;SDS011;8255;49.560;8.244;2023-02-14T06:22:48;47.57;;;18.83;;
16294;SDS011;8255;49.560;8.244;2023-02-14T06:25:15;64.43;;;21.53;;
16294;SDS011;8255;49.560;8.244;2023-02-14T06:27:41;66.10;;;22.50;;
16294;SDS011;8255;49.560;8.244;2023-02-14T06:30:10;57.87;;;19.13;;
16294;SDS011;8255;49.560;8.244;2023-02-14T06:32:36;73.93;;;21.83;;
16294;SDS011;8255;49.560;8.244;2023-02-14T06:35:03;71.00;;;22.47;;
16294;SDS011;8255;49.560;8.244;2023-02-14T06:37:29;56.27;;;21.27;;
16294;SDS011;8255;49.560;8.244;2023-02-14T06:39:56;55.40;;;19.30;;
16294;SDS011;8255;49.560;8.244;2023-02-14T06:42:22;51.73;;;18.70;;
16294;SDS011;8255;49.560;8.244;2023-02-14T06:44:48;69.17;;;20.97;;
16294;SDS011;8255;49.560;8.244;2023-02-14T06:47:16;66.83;;;22.27;;
16294;SDS011;8255;49.560;8.244;2023-02-14T06:49:42;48.63;;;20.03;;
16294;SDS011;8255;49.560;8.244;2023-02-14T06:52:09;70.83;;;22.23;;
16294;SDS011;8255;49.560;8.244;2023-02-14T06:54:35;64.30;;;24.00;;
16294;SDS011;8255;49.560;8.244;2023-02-14T06:57:02;60.40;;;21.33;;
16294;SDS011;8255;49.560;8.244;2023-02-14T06:59:28;72.73;;;23.47;;
16294;SDS011;8255;49.560;8.244;2023-02-14T07:01:54;55.00;;;21.47;;
16294;SDS011;8255;49.560;8.244;2023-02-14T07:04:22;54.80;;;21.57;;
16294;SDS011;8255;49.560;8.244;2023-02-14T07:06:48;54.10;;;24.47;;
16294;SDS011;8255;49.560;8.244;2023-02-14T07:09:15;74.53;;;26.17;;
16294;SDS011;8255;49.560;8.244;2023-02-14T07:11:42;54.30;;;22.43;;
16294;SDS011;8255;49.560;8.244;2023-02-14T07:14:09;65.50;;;23.17;;
16294;SDS011;8255;49.560;8.244;2023-02-14T07:16:35;64.20;;;24.40;;
16294;SDS011;8255;49.560;8.244;2023-02-14T07:19:01;59.77;;;22.30;;
16294;SDS011;8255;49.560;8.244;2023-02-14T07:21:29;57.47;;;23.27;;
16294;SDS011;8255;49.560;8.244;2023-02-14T07:23:55;58.30;;;25.13;;
16294;SDS011;8255;49.560;8.244;2023-02-14T07:26:21;50.90;;;23.27;;
16294;SDS011;8255;49.560;8.244;2023-02-14T07:28:48;56.13;;;23.63;;
16294;SDS011;8255;49.560;8.244;2023-02-14T07:31:15;57.87;;;23.87;;
16294;SDS011;8255;49.560;8.244;2023-02-14T07:33:42;52.07;;;22.03;;
16294;SDS011;8255;49.560;8.244;2023-02-14T07:36:09;54.23;;;23.47;;
16294;SDS011;8255;49.560;8.244;2023-02-14T07:38:36;56.57;;;23.87;;
16294;SDS011;8255;49.560;8.244;2023-02-14T07:41:03;55.10;;;24.67;;
16294;SDS011;8255;49.560;8.244;2023-02-14T07:43:29;54.63;;;24.23;;
16294;SDS011;8255;49.560;8.244;2023-02-14T07:45:58;51.93;;;24.13;;
16294;SDS011;8255;49.560;8.244;2023-02-14T07:48:25;52.00;;;24.53;;
16294;SDS011;8255;49.560;8.244;2023-02-14T07:50:51;61.37;;;23.53;;
16294;SDS011;8255;49.560;8.244;2023-02-14T07:53:20;55.27;;;24.90;;
16294;SDS011;8255;49.560;8.244;2023-02-14T07:55:48;47.83;;;23.13;;
16294;SDS011;8255;49.560;8.244;2023-02-14T07:58:15;54.47;;;23.63;;
16294;SDS011;8255;49.560;8.244;2023-02-14T08:00:41;50.50;;;23.00;;
16294;SDS011;8255;49.560;8.244;2023-02-14T08:03:08;52.40;;;24.33;;
16294;SDS011;8255;49.560;8.244;2023-02-14T08:05:34;53.33;;;22.30;;
16294;SDS011;8255;49.560;8.244;2023-02-14T08:08:00;52.97;;;22.40;;
16294;SDS011;8255;49.560;8.244;2023-02-14T08:10:27;48.40;;;23.43;;
16294;SDS011;8255;49.560;8.244;2023-02-14T08:12:54;51.50;;;23.63;;
16294;SDS011;8255;49.560;8.244;2023-02-14T08:15:23;49.47;;;23.67;;
16294;SDS011;8255;49.560;8.244;2023-02-14T08:18:08;45.30;;;22.47;;
16294;SDS011;8255;49.560;8.244;2023-02-14T08:20:34;54.80;;;24.83;;
16294;SDS011;8255;49.560;8.244;2023-02-14T08:23:00;53.77;;;23.90;;
16294;SDS011;8255;49.560;8.244;2023-02-14T08:25:27;51.90;;;23.50;;
16294;SDS011;8255;49.560;8.244;2023-02-14T08:27:54;51.43;;;24.23;;
16294;SDS011;8255;49.560;8.244;2023-02-14T08:30:21;46.33;;;22.37;;
16294;SDS011;8255;49.560;8.244;2023-02-14T08:32:48;45.60;;;21.87;;
16294;SDS011;8255;49.560;8.244;2023-02-14T08:35:14;50.47;;;23.30;;
16294;SDS011;8255;49.560;8.244;2023-02-14T08:37:40;44.07;;;22.00;;
16294;SDS011;8255;49.560;8.244;2023-02-14T08:40:07;46.30;;;23.13;;
16294;SDS011;8255;49.560;8.244;2023-02-14T08:42:33;45.97;;;21.87;;
16294;SDS011;8255;49.560;8.244;2023-02-14T08:45:01;45.40;;;21.90;;
16294;SDS011;8255;49.560;8.244;2023-02-14T08:47:27;52.37;;;23.93;;
16294;SDS011;8255;49.560;8.244;2023-02-14T08:49:54;53.93;;;23.60;;
16294;SDS011;8255;49.560;8.244;2023-02-14T08:52:20;51.73;;;24.10;;
16294;SDS011;8255;49.560;8.244;2023-02-14T08:54:46;49.03;;;23.97;;
16294;SDS011;8255;49.560;8.244;2023-02-14T08:57:13;48.83;;;23.03;;
16294;SDS011;8255;49.560;8.244;2023-02-14T08:59:39;49.43;;;24.23;;
16294;SDS011;8255;49.560;8.244;2023-02-14T09:02:09;48.37;;;23.37;;
16294;SDS011;8255;49.560;8.244;2023-02-14T09:04:36;47.63;;;23.20;;
16294;SDS011;8255;49.560;8.244;2023-02-14T09:07:03;51.87;;;23.10;;
16294;SDS011;8255;49.560;8.244;2023-02-14T09:09:30;51.03;;;24.00;;
16294;SDS011;8255;49.560;8.244;2023-02-14T09:11:56;47.53;;;22.37;;
16294;SDS011;8255;49.560;8.244;2023-02-14T09:14:22;46.87;;;21.37;;
16294;SDS011;8255;49.560;8.244;2023-02-14T09:16:49;47.63;;;23.73;;
16294;SDS011;8255;49.560;8.244;2023-02-14T09:19:17;40.67;;;20.87;;
16294;SDS011;8255;49.560;8.244;2023-02-14T09:21:43;42.57;;;22.83;;
16294;SDS011;8255;49.560;8.244;2023-02-14T09:24:09;39.77;;;20.43;;
16294;SDS011;8255;49.560;8.244;2023-02-14T09:26:36;42.33;;;20.90;;
16294;SDS011;8255;49.560;8.244;2023-02-14T09:29:04;41.17;;;20.47;;
16294;SDS011;8255;49.560;8.244;2023-02-14T09:31:31;41.13;;;20.30;;
16294;SDS011;8255;49.560;8.244;2023-02-14T09:33:57;36.57;;;20.17;;
16294;SDS011;8255;49.560;8.244;2023-02-14T09:36:25;37.10;;;19.70;;
16294;SDS011;8255;49.560;8.244;2023-02-14T09:38:51;41.07;;;21.53;;
16294;SDS011;8255;49.560;8.244;2023-02-14T09:41:27;39.10;;;20.90;;
16294;SDS011;8255;49.560;8.244;2023-02-14T09:43:59;37.83;;;20.43;;
16294;SDS011;8255;49.560;8.244;2023-02-14T09:46:27;38.07;;;20.17;;
16294;SDS011;8255;49.560;8.244;2023-02-14T09:48:54;33.47;;;17.97;;
16294;SDS011;8255;49.560;8.244;2023-02-14T09:51:22;36.60;;;20.60;;
16294;SDS011;8255;49.560;8.244;2023-02-14T09:53:51;32.33;;;17.93;;
16294;SDS011;8255;49.560;8.244;2023-02-14T09:56:23;35.53;;;19.50;;
16294;SDS011;8255;49.560;8.244;2023-02-14T09:58:53;34.30;;;18.73;;
16294;SDS011;8255;49.560;8.244;2023-02-14T10:01:21;34.93;;;20.47;;
16294;SDS011;8255;49.560;8.244;2023-02-14T10:03:56;36.53;;;19.40;;
16294;SDS011;8255;49.560;8.244;2023-02-14T10:06:30;34.90;;;18.70;;
16294;SDS011;8255;49.560;8.244;2023-02-14T10:09:04;36.23;;;20.03;;
16294;SDS011;8255;49.560;8.244;2023-02-14T10:11:34;36.80;;;19.73;;
16294;SDS011;8255;49.560;8.244;2023-02-14T10:14:01;33.90;;;19.77;;
16294;SDS011;8255;49.560;8.244;2023-02-14T10:16:30;37.87;;;19.43;;
16294;SDS011;8255;49.560;8.244;2023-02-14T10:18:58;36.17;;;20.50;;
16294;SDS011;8255;49.560;8.244;2023-02-14T10:21:28;35.03;;;18.87;;
16294;SDS011;8255;49.560;8.244;2023-02-14T10:23:57;36.93;;;20.03;;
16294;SDS011;8255;49.560;8.244;2023-02-14T10:26:28;35.43;;;20.43;;
16294;SDS011;8255;49.560;8.244;2023-02-14T10:28:55;34.07;;;19.17;;
16294;SDS011;8255;49.560;8.244;2023-02-14T10:31:22;36.60;;;20.67;;
16294;SDS011;8255;49.560;8.244;2023-02-14T10:33:50;35.60;;;20.70;;
16294;SDS011;8255;49.560;8.244;2023-02-14T10:36:19;39.13;;;21.33;;
16294;SDS011;8255;49.560;8.244;2023-02-14T10:38:49;37.37;;;21.23;;
16294;SDS011;8255;49.560;8.244;2023-02-14T10:41:30;35.37;;;20.03;;
16294;SDS011;8255;49.560;8.244;2023-02-14T10:44:02;36.40;;;20.33;;
16294;SDS011;8255;49.560;8.244;2023-02-14T10:46:37;35.30;;;20.80;;
16294;SDS011;8255;49.560;8.244;2023-02-14T10:49:10;34.37;;;20.63;;
16294;SDS011;8255;49.560;8.244;2023-02-14T10:51:38;36.03;;;20.83;;
16294;SDS011;8255;49.560;8.244;2023-02-14T10:54:12;32.10;;;19.83;;
16294;SDS011;8255;49.560;8.244;2023-02-14T10:56:44;39.67;;;21.80;;
16294;SDS011;8255;49.560;8.244;2023-02-14T10:59:14;37.27;;;21.37;;
16294;SDS011;8255;49.560;8.244;2023-02-14T11:01:46;37.53;;;21.90;;
16294;SDS011;8255;49.560;8.244;2023-02-14T11:04:12;31.87;;;19.83;;
16294;SDS011;8255;49.560;8.244;2023-02-14T11:06:40;36.90;;;19.57;;
16294;SDS011;8255;49.560;8.244;2023-02-14T11:09:08;34.23;;;20.93;;
16294;SDS011;8255;49.560;8.244;2023-02-14T11:11:35;34.13;;;20.83;;
16294;SDS011;8255;49.560;8.244;2023-02-14T11:14:13;40.00;;;21.03;;
16294;SDS011;8255;49.560;8.244;2023-02-14T11:16:43;37.07;;;21.17;;
16294;SDS011;8255;49.560;8.244;2023-02-14T11:19:18;39.00;;;22.30;;
16294;SDS011;8255;49.560;8.244;2023-02-14T11:21:45;37.70;;;21.57;;
16294;SDS011;8255;49.560;8.244;2023-02-14T11:24:15;42.27;;;23.37;;
16294;SDS011;8255;49.560;8.244;2023-02-14T11:26:43;40.67;;;24.13;;
16294;SDS011;8255;49.560;8.244;2023-02-14T11:29:11;38.43;;;23.23;;
16294;SDS011;8255;49.560;8.244;2023-02-14T11:31:39;38.87;;;23.43;;
16294;SDS011;8255;49.560;8.244;2023-02-14T11:34:18;38.73;;;22.43;;
16294;SDS011;8255;49.560;8.244;2023-02-14T11:36:46;41.27;;;22.37;;
16294;SDS011;8255;49.560;8.244;2023-02-14T11:39:17;39.77;;;23.70;;
16294;SDS011;8255;49.560;8.244;2023-02-14T11:41:47;42.73;;;24.43;;
16294;SDS011;8255;49.560;8.244;2023-02-14T11:44:14;45.90;;;24.77;;
16294;SDS011;8255;49.560;8.244;2023-02-14T11:46:47;44.07;;;25.20;;
16294;SDS011;8255;49.560;8.244;2023-02-14T11:49:22;41.37;;;24.13;;
16294;SDS011;8255;49.560;8.244;2023-02-14T11:51:48;41.93;;;24.67;;
16294;SDS011;8255;49.560;8.244;2023-02-14T11:54:22;41.43;;;25.53;;
16294;SDS011;8255;49.560;8.244;2023-02-14T11:56:50;39.87;;;24.47;;
16294;SDS011;8255;49.560;8.244;2023-02-14T11:59:22;41.60;;;24.60;;
16294;SDS011;8255;49.560;8.244;2023-02-14T12:01:50;41.07;;;24.17;;
16294;SDS011;8255;49.560;8.244;2023-02-14T12:04:18;39.77;;;23.17;;
16294;SDS011;8255;49.560;8.244;2023-02-14T12:06:45;44.77;;;24.80;;
16294;SDS011;8255;49.560;8.244;2023-02-14T12:09:11;41.47;;;23.83;;
16294;SDS011;8255;49.560;8.244;2023-02-14T12:11:38;37.60;;;23.00;;
16294;SDS011;8255;49.560;8.244;2023-02-14T12:14:04;39.23;;;23.77;;
16294;SDS011;8255;49.560;8.244;2023-02-14T12:16:31;37.10;;;22.53;;
16294;SDS011;8255;49.560;8.244;2023-02-14T12:19:01;37.00;;;22.93;;
16294;SDS011;8255;49.560;8.244;2023-02-14T12:24:16;39.80;;;24.90;;
16294;SDS011;8255;49.560;8.244;2023-02-14T12:26:44;38.77;;;23.67;;
16294;SDS011;8255;49.560;8.244;2023-02-14T12:29:15;44.37;;;27.10;;
16294;SDS011;8255;49.560;8.244;2023-02-14T12:31:43;46.97;;;29.00;;
16294;SDS011;8255;49.560;8.244;2023-02-14T12:34:12;46.13;;;26.97;;
16294;SDS011;8255;49.560;8.244;2023-02-14T12:36:46;45.20;;;26.90;;
16294;SDS011;8255;49.560;8.244;2023-02-14T12:39:16;45.40;;;27.00;;
16294;SDS011;8255;49.560;8.244;2023-02-14T12:41:47;49.20;;;27.57;;
16294;SDS011;8255;49.560;8.244;2023-02-14T12:44:19;44.10;;;26.53;;
16294;SDS011;8255;49.560;8.244;2023-02-14T12:46:55;45.40;;;27.83;;
16294;SDS011;8255;49.560;8.244;2023-02-14T12:49:28;46.67;;;27.17;;
16294;SDS011;8255;49.560;8.244;2023-02-14T12:51:59;53.60;;;29.80;;
16294;SDS011;8255;49.560;8.244;2023-02-14T12:54:32;52.20;;;30.23;;
16294;SDS011;8255;49.560;8.244;2023-02-14T12:57:01;48.67;;;28.53;;
16294;SDS011;8255;49.560;8.244;2023-02-14T12:59:31;51.87;;;30.57;;
16294;SDS011;8255;49.560;8.244;2023-02-14T13:04:55;48.73;;;29.47;;
16294;SDS011;8255;49.560;8.244;2023-02-14T13:07:25;51.60;;;31.27;;
16294;SDS011;8255;49.560;8.244;2023-02-14T13:10:03;48.00;;;28.50;;
16294;SDS011;8255;49.560;8.244;2023-02-14T13:12:35;56.73;;;32.43;;
16294;SDS011;8255;49.560;8.244;2023-02-14T13:15:08;51.47;;;33.13;;
16294;SDS011;8255;49.560;8.244;2023-02-14T13:17:38;56.03;;;33.20;;
16294;SDS011;8255;49.560;8.244;2023-02-14T13:20:16;54.03;;;32.83;;
16294;SDS011;8255;49.560;8.244;2023-02-14T13:22:49;52.03;;;33.13;;
16294;SDS011;8255;49.560;8.244;2023-02-14T13:25:19;53.00;;;31.97;;
16294;SDS011;8255;49.560;8.244;2023-02-14T13:27:45;53.70;;;31.73;;
16294;SDS011;8255;49.560;8.244;2023-02-14T13:30:13;48.70;;;30.87;;
16294;SDS011;8255;49.560;8.244;2023-02-14T13:32:41;51.87;;;32.53;;
16294;SDS011;8255;49.560;8.244;2023-02-14T13:35:15;52.70;;;31.60;;
16294;SDS011;8255;49.560;8.244;2023-02-14T13:37:42;58.47;;;33.87;;
16294;SDS011;8255;49.560;8.244;2023-02-14T13:40:14;55.10;;;33.10;;
16294;SDS011;8255;49.560;8.244;2023-02-14T13:42:49;57.43;;;33.83;;
16294;SDS011;8255;49.560;8.244;2023-02-14T13:48:02;59.40;;;33.60;;
16294;SDS011;8255;49.560;8.244;2023-02-14T13:50:31;60.57;;;34.97;;
16294;SDS011;8255;49.560;8.244;2023-02-14T13:52:57;59.67;;;35.20;;
16294;SDS011;8255;49.560;8.244;2023-02-14T13:55:25;60.93;;;34.53;;
16294;SDS011;8255;49.560;8.244;2023-02-14T13:57:59;60.33;;;34.40;;
16294;SDS011;8255;49.560;8.244;2023-02-14T14:00:36;56.53;;;32.27;;
16294;SDS011;8255;49.560;8.244;2023-02-14T14:03:04;57.80;;;32.20;;
16294;SDS011;8255;49.560;8.244;2023-02-14T14:08:26;61.20;;;34.93;;
16294;SDS011;8255;49.560;8.244;2023-02-14T14:11:04;62.20;;;34.37;;
16294;SDS011;8255;49.560;8.244;2023-02-14T14:16:18;63.07;;;34.67;;
16294;SDS011;8255;49.560;8.244;2023-02-14T14:18:45;63.33;;;36.10;;
16294;SDS011;8255;49.560;8.244;2023-02-14T14:21:14;60.67;;;34.53;;
16294;SDS011;8255;49.560;8.244;2023-02-14T14:23:42;60.33;;;34.43;;
16294;SDS011;8255;49.560;8.244;2023-02-14T14:26:29;62.23;;;34.40;;
16294;SDS011;8255;49.560;8.244;2023-02-14T14:28:58;68.53;;;35.13;;
16294;SDS011;8255;49.560;8.244;2023-02-14T14:31:25;64.80;;;35.80;;
16294;SDS011;8255;49.560;8.244;2023-02-14T14:33:56;71.37;;;35.60;;
16294;SDS011;8255;49.560;8.244;2023-02-14T14:36:23;66.47;;;36.57;;
16294;SDS011;8255;49.560;8.244;2023-02-14T14:38:51;63.17;;;33.33;;
16294;SDS011;8255;49.560;8.244;2023-02-14T14:41:18;65.97;;;35.73;;
16294;SDS011;8255;49.560;8.244;2023-02-14T14:43:44;64.73;;;35.60;;
16294;SDS011;8255;49.560;8.244;2023-02-14T14:46:12;73.10;;;36.30;;
16294;SDS011;8255;49.560;8.244;2023-02-14T14:48:40;69.37;;;36.53;;
16294;SDS011;8255;49.560;8.244;2023-02-14T14:51:08;69.40;;;36.33;;
16294;SDS011;8255;49.560;8.244;2023-02-14T14:53:41;65.70;;;36.23;;
16294;SDS011;8255;49.560;8.244;2023-02-14T14:56:11;66.13;;;35.40;;
16294;SDS011;8255;49.560;8.244;2023-02-14T14:58:38;65.67;;;33.70;;
16294;SDS011;8255;49.560;8.244;2023-02-14T15:01:06;73.27;;;35.60;;
16294;SDS011;8255;49.560;8.244;2023-02-14T15:03:37;67.47;;;34.23;;